createdAt,value
2022-08-22T00:00:52.159Z,19.47
2022-08-22T00:03:00.350Z,20.21
2022-08-22T00:03:01.690Z,19.86
2022-08-22T00:03:03.228Z,20.08
2022-08-22T00:03:07.844Z,20.49
2022-08-22T00:06:09.581Z,19.45
2022-08-22T00:11:25.772Z,19.37
2022-08-22T00:16:42.605Z,19.30
2022-08-22T00:22:00.367Z,19.29
2022-08-22T00:27:10.132Z,19.27
2022-08-22T00:32:29.848Z,19.25
2022-08-22T00:37:43.477Z,19.23
2022-08-22T00:43:09.931Z,19.21
2022-08-22T00:48:32.911Z,19.24
2022-08-22T00:53:52.554Z,19.20
2022-08-22T00:59:23.806Z,19.24
2022-08-22T01:04:51.058Z,19.12
2022-08-22T01:10:20.479Z,19.03
2022-08-22T01:15:26.830Z,19.08
2022-08-22T01:20:43.723Z,19.07
2022-08-22T01:26:05.621Z,19.06
2022-08-22T01:31:32.524Z,19.04
2022-08-22T01:36:59.960Z,18.98
2022-08-22T01:42:39.255Z,18.96
2022-08-22T01:48:11.310Z,18.91
2022-08-22T01:53:22.917Z,18.86
2022-08-22T01:58:29.924Z,18.83
2022-08-22T02:03:57.019Z,18.74
2022-08-22T02:09:14.135Z,18.75
2022-08-22T02:14:46.824Z,18.68
2022-08-22T02:20:17.276Z,18.67
2022-08-22T02:25:28.407Z,18.64
2022-08-22T02:30:50.727Z,18.65
2022-08-22T02:36:01.523Z,18.64
2022-08-22T02:41:24.290Z,18.59
2022-08-22T02:46:55.738Z,18.59
2022-08-22T02:52:13.211Z,18.59
2022-08-22T02:57:22.966Z,18.55
2022-08-22T03:02:36.808Z,18.51
2022-08-22T03:07:43.908Z,18.50
2022-08-22T03:13:01.431Z,18.51
2022-08-22T03:18:06.079Z,18.49
2022-08-22T03:23:13.515Z,18.45
2022-08-22T03:28:22.115Z,18.44
2022-08-22T03:33:29.578Z,18.37
2022-08-22T03:38:34.191Z,18.34
2022-08-22T03:44:08.312Z,18.31
2022-08-22T03:49:35.315Z,18.26
2022-08-22T03:54:45.864Z,18.25
2022-08-22T04:00:10.562Z,18.23
2022-08-22T04:05:41.406Z,18.23
2022-08-22T04:11:19.129Z,18.23
2022-08-22T04:16:38.917Z,18.22
2022-08-22T04:21:58.258Z,18.20
2022-08-22T04:27:26.600Z,18.22
2022-08-22T04:32:45.112Z,18.15
2022-08-22T04:44:39.531Z,18.19
2022-08-22T04:49:54.852Z,18.18
2022-08-22T04:55:17.938Z,18.13
2022-08-22T05:00:20.412Z,18.17
2022-08-22T05:05:32.051Z,18.23
2022-08-22T05:10:40.583Z,18.25
2022-08-22T05:15:47.862Z,18.27
2022-08-22T05:20:51.587Z,18.31
2022-08-22T05:25:58.075Z,18.33
2022-08-22T05:31:09.400Z,18.34
2022-08-22T05:36:17.036Z,18.36
2022-08-22T05:41:26.073Z,18.36
2022-08-22T05:46:30.563Z,18.27
2022-08-22T05:51:59.995Z,18.26
2022-08-22T05:57:36.409Z,18.34
2022-08-22T06:03:15.517Z,18.35
2022-08-22T06:08:44.083Z,18.42
2022-08-22T06:14:03.630Z,18.38
2022-08-22T06:19:19.125Z,18.40
2022-08-22T06:24:26.231Z,18.45
2022-08-22T06:29:45.827Z,18.51
2022-08-22T06:34:49.109Z,18.63
2022-08-22T06:39:54.245Z,18.65
2022-08-22T06:45:08.660Z,18.64
2022-08-22T06:50:14.954Z,18.66
2022-08-22T06:55:17.513Z,18.64
2022-08-22T07:00:20.408Z,18.53
2022-08-22T07:05:28.399Z,18.65
2022-08-22T07:10:30.235Z,18.78
2022-08-22T07:15:40.298Z,18.78
2022-08-22T07:21:09.262Z,18.83
2022-08-22T07:26:41.180Z,18.88
2022-08-22T07:31:59.830Z,19.01
2022-08-22T07:37:12.279Z,19.14
2022-08-22T07:42:50.652Z,19.24
2022-08-22T07:48:01.578Z,19.49
2022-08-22T07:53:26.550Z,19.61
2022-08-22T07:58:33.849Z,19.74
2022-08-22T08:03:36.699Z,19.89
2022-08-22T08:08:43.063Z,19.98
2022-08-22T08:13:49.652Z,20.15
2022-08-22T08:18:54.656Z,20.26
2022-08-22T08:23:58.995Z,20.41
2022-08-22T08:29:03.901Z,20.60
2022-08-22T08:34:10.633Z,20.83
2022-08-22T08:39:43.451Z,21.04
2022-08-22T08:45:02.003Z,21.14
2022-08-22T08:50:22.566Z,21.30
2022-08-22T08:55:59.313Z,21.46
2022-08-22T09:01:02.159Z,21.62
2022-08-22T09:06:22.794Z,21.69
2022-08-22T09:11:59.879Z,21.84
2022-08-22T09:17:27.969Z,21.91
2022-08-22T09:23:10.094Z,22.10
2022-08-22T09:28:24.132Z,22.39
2022-08-22T09:33:41.101Z,22.48
2022-08-22T09:38:53.008Z,22.40
2022-08-22T09:44:05.381Z,22.31
2022-08-22T09:49:27.044Z,22.71
2022-08-22T09:54:48.762Z,22.46
2022-08-22T10:00:09.502Z,22.51
2022-08-22T10:05:40.421Z,22.43
2022-08-22T10:10:57.374Z,22.32
2022-08-22T10:16:26.725Z,22.20
2022-08-22T10:22:06.681Z,22.25
2022-08-22T10:27:20.568Z,22.66
2022-08-22T10:32:37.682Z,22.44
2022-08-22T10:37:48.163Z,23.01
2022-08-22T10:43:09.370Z,23.39
2022-08-22T10:48:11.043Z,23.68
2022-08-22T10:53:35.852Z,23.77
2022-08-22T10:58:46.499Z,24.08
2022-08-22T11:04:28.451Z,24.57
2022-08-22T11:10:01.591Z,24.52
2022-08-22T11:15:34.751Z,24.71
2022-08-22T11:20:55.600Z,24.62
2022-08-22T11:26:09.776Z,24.41
2022-08-22T11:31:31.729Z,24.78
2022-08-22T11:36:54.702Z,24.98
2022-08-22T11:42:05.844Z,25.20
2022-08-22T11:47:14.868Z,25.35
2022-08-22T11:52:42.794Z,25.49
2022-08-22T11:58:06.630Z,25.61
2022-08-22T12:03:18.745Z,25.32
2022-08-22T12:08:33.936Z,25.54
2022-08-22T12:13:52.011Z,25.31
2022-08-22T12:19:15.061Z,25.28
2022-08-22T12:24:32.722Z,25.14
2022-08-22T12:30:03.297Z,24.93
2022-08-22T12:35:34.617Z,24.66
2022-08-22T12:40:55.004Z,24.74
2022-08-22T12:46:18.621Z,25.15
2022-08-22T12:51:31.827Z,24.83
2022-08-22T12:57:00.514Z,24.60
2022-08-22T13:02:15.653Z,24.92
2022-08-22T13:07:29.063Z,25.26
2022-08-22T13:12:44.199Z,25.41
2022-08-22T13:17:46.595Z,24.95
2022-08-22T13:28:25.392Z,25.38
2022-08-22T13:33:35.200Z,25.56
2022-08-22T13:38:53.176Z,25.08
2022-08-22T13:44:25.058Z,25.31
2022-08-22T13:49:43.793Z,25.20
2022-08-22T13:54:54.202Z,25.60
2022-08-22T14:00:07.346Z,25.96
2022-08-22T14:05:16.825Z,26.23
2022-08-22T14:10:29.525Z,25.91
2022-08-22T14:15:46.325Z,25.41
2022-08-22T14:20:48.756Z,25.22
2022-08-22T14:25:51.626Z,25.78
2022-08-22T14:30:59.473Z,26.08
2022-08-22T14:36:13.529Z,26.31
2022-08-22T14:41:55.690Z,26.46
2022-08-22T14:47:08.396Z,26.28
2022-08-22T14:52:41.992Z,26.39
2022-08-22T14:57:50.709Z,26.31
2022-08-22T15:02:53.067Z,26.27
2022-08-22T15:07:59.457Z,26.31
2022-08-22T15:13:04.998Z,26.24
2022-08-22T15:18:28.123Z,26.44
2022-08-22T15:23:32.097Z,26.54
2022-08-22T15:28:55.223Z,26.38
2022-08-22T15:34:11.271Z,26.51
2022-08-22T15:39:38.234Z,26.08
2022-08-22T15:44:44.180Z,26.06
2022-08-22T15:50:02.570Z,26.37
2022-08-22T15:55:25.251Z,26.35
2022-08-22T16:00:30.696Z,26.20
2022-08-22T16:05:35.589Z,25.92
2022-08-22T16:10:41.636Z,26.17
2022-08-22T16:15:54.392Z,26.14
2022-08-22T16:20:58.291Z,26.17
2022-08-22T16:25:59.909Z,26.02
2022-08-22T16:31:29.694Z,25.97
2022-08-22T16:36:40.232Z,25.91
2022-08-22T16:41:43.681Z,25.81
2022-08-22T16:46:47.787Z,25.76
2022-08-22T16:52:20.416Z,25.68
2022-08-22T16:57:31.191Z,25.59
2022-08-22T17:03:09.728Z,25.59
2022-08-22T17:08:20.625Z,25.49
2022-08-22T17:14:04.611Z,25.34
2022-08-22T17:19:31.146Z,25.05
2022-08-22T17:24:41.516Z,24.87
2022-08-22T17:29:54.712Z,24.72
2022-08-22T17:35:01.791Z,24.61
2022-08-22T17:40:42.748Z,24.46
2022-08-22T17:45:56.599Z,24.38
2022-08-22T17:51:15.791Z,24.51
2022-08-22T17:56:31.809Z,24.48
2022-08-22T18:01:55.581Z,24.41
2022-08-22T18:07:19.309Z,24.13
2022-08-22T18:12:34.931Z,24.06
2022-08-22T18:17:51.026Z,23.99
2022-08-22T18:22:58.563Z,23.91
2022-08-22T18:28:14.317Z,23.78
2022-08-22T18:33:29.090Z,23.73
2022-08-22T18:38:51.871Z,23.68
2022-08-22T18:43:54.109Z,23.63
2022-08-22T18:49:14.701Z,23.54
2022-08-22T18:54:36.030Z,23.42
2022-08-22T18:59:54.183Z,23.34
2022-08-22T19:05:22.288Z,23.16
2022-08-22T19:10:49.289Z,23.10
2022-08-22T19:16:32.862Z,23.07
2022-08-22T19:21:55.175Z,22.99
2022-08-22T19:27:21.547Z,22.87
2022-08-22T19:32:45.186Z,22.79
2022-08-22T19:37:54.747Z,22.75
2022-08-22T19:43:16.373Z,22.68
2022-08-22T19:48:27.489Z,22.68
2022-08-22T19:53:56.385Z,22.55
2022-08-22T19:59:13.734Z,22.53
2022-08-22T20:04:46.734Z,22.51
2022-08-22T20:09:54.529Z,22.43
2022-08-22T20:14:57.142Z,22.36
2022-08-22T20:20:35.218Z,22.27
2022-08-22T20:25:50.227Z,22.30
2022-08-22T20:30:57.926Z,22.35
2022-08-22T20:36:05.180Z,22.29
2022-08-22T20:41:39.116Z,22.29
2022-08-22T20:47:00.363Z,22.27
2022-08-22T20:52:06.377Z,22.26
2022-08-22T20:57:19.829Z,22.22
2022-08-22T21:02:30.184Z,22.20
2022-08-22T21:07:41.911Z,22.15
2022-08-22T21:12:43.839Z,22.10
2022-08-22T21:17:45.478Z,22.05
2022-08-22T21:22:47.172Z,22.06
2022-08-22T21:27:49.123Z,22.05
2022-08-22T21:32:56.352Z,22.04
2022-08-22T21:37:59.969Z,22.00
2022-08-22T21:43:04.651Z,21.99
2022-08-22T21:48:30.963Z,21.90
2022-08-22T21:53:32.538Z,21.89
2022-08-22T21:58:36.757Z,21.92
2022-08-22T22:03:39.082Z,21.90
2022-08-22T22:08:40.799Z,21.89
2022-08-22T22:13:42.889Z,21.89
2022-08-22T22:18:44.515Z,21.93
2022-08-22T22:23:46.574Z,21.91
2022-08-22T22:28:49.048Z,21.89
2022-08-22T22:33:50.689Z,21.92
2022-08-22T22:38:53.649Z,21.87
2022-08-22T22:43:55.441Z,21.83
2022-08-22T22:48:57.704Z,21.76
2022-08-22T22:53:59.346Z,21.74
2022-08-22T22:59:12.619Z,21.79
2022-08-22T23:04:16.519Z,21.75
2022-08-22T23:09:18.131Z,21.76
2022-08-22T23:14:19.948Z,21.69
2022-08-22T23:19:21.630Z,21.73
2022-08-22T23:24:25.172Z,21.61
2022-08-22T23:29:26.855Z,21.60
2022-08-22T23:34:31.603Z,21.62
2022-08-22T23:39:34.842Z,21.61
2022-08-22T23:44:37.922Z,21.58
2022-08-22T23:49:40.734Z,21.57
2022-08-22T23:54:42.788Z,21.53
2022-08-22T23:59:57.724Z,21.46
